createdAt,value
2019-05-25T00:01:00.012Z,96.50
2019-05-25T00:03:28.392Z,96.40
2019-05-25T00:05:56.788Z,96.30
2019-05-25T00:08:25.193Z,95.90
2019-05-25T00:10:53.587Z,96.40
2019-05-25T00:13:22.039Z,96.30
2019-05-25T00:15:50.447Z,95.80
2019-05-25T00:18:18.838Z,96.20
2019-05-25T00:20:47.231Z,95.80
2019-05-25T00:23:15.613Z,95.40
2019-05-25T00:25:44.019Z,96.30
2019-05-25T00:28:12.420Z,96.00
2019-05-25T00:30:40.902Z,95.90
2019-05-25T00:33:09.316Z,96.10
2019-05-25T00:35:37.771Z,96.10
2019-05-25T00:38:06.402Z,96.00
2019-05-25T00:40:34.800Z,95.70
2019-05-25T00:43:03.348Z,95.10
2019-05-25T00:45:31.755Z,96.20
2019-05-25T00:48:00.212Z,96.60
2019-05-25T00:50:28.599Z,96.70
2019-05-25T00:52:57.059Z,96.60
2019-05-25T00:55:25.455Z,95.90
2019-05-25T00:57:53.852Z,96.00
2019-05-25T01:00:22.500Z,96.30
2019-05-25T01:02:51.440Z,96.00
2019-05-25T01:05:19.792Z,95.30
2019-05-25T01:07:48.189Z,96.30
2019-05-25T01:10:16.812Z,95.70
2019-05-25T01:12:45.200Z,96.50
2019-05-25T01:15:14.794Z,96.80
2019-05-25T01:17:43.192Z,96.80
2019-05-25T01:20:12.051Z,97.20
2019-05-25T01:22:40.509Z,96.90
2019-05-25T01:25:09.452Z,97.50
2019-05-25T01:27:37.849Z,96.70
2019-05-25T01:30:08.783Z,97.90
2019-05-25T01:32:37.252Z,97.00
2019-05-25T01:35:06.476Z,96.60
2019-05-25T01:37:34.874Z,97.30
2019-05-25T01:40:04.540Z,97.90
2019-05-25T01:42:32.976Z,97.50
2019-05-25T01:45:01.402Z,97.10
2019-05-25T01:47:29.808Z,96.80
2019-05-25T01:49:58.246Z,97.80
2019-05-25T01:52:26.657Z,97.00
2019-05-25T01:55:00.047Z,98.40
2019-05-25T01:57:25.534Z,98.30
2019-05-25T01:59:53.927Z,97.40
2019-05-25T02:02:22.323Z,99.10
2019-05-25T02:04:50.712Z,99.30
2019-05-25T02:07:19.183Z,99.60
2019-05-25T02:09:47.560Z,99.30
2019-05-25T02:12:16.035Z,99.30
2019-05-25T02:14:44.412Z,98.40
2019-05-25T02:17:12.812Z,99.50
2019-05-25T02:19:41.196Z,99.30
2019-05-25T02:22:09.639Z,98.70
2019-05-25T02:24:38.041Z,99.60
2019-05-25T02:27:06.439Z,99.00
2019-05-25T02:29:34.816Z,99.20
2019-05-25T02:32:03.211Z,99.10
2019-05-25T02:34:31.604Z,99.90
2019-05-25T02:37:00.008Z,99.10
2019-05-25T02:39:28.402Z,99.90
2019-05-25T02:41:56.788Z,99.60
2019-05-25T02:44:25.214Z,99.10
2019-05-25T02:46:53.586Z,99.80
2019-05-25T02:49:21.976Z,99.00
2019-05-25T02:51:50.370Z,99.40
2019-05-25T02:54:20.138Z,99.90
2019-05-25T02:56:48.516Z,99.90
2019-05-25T02:59:16.923Z,99.90
2019-05-25T03:01:45.298Z,99.70
2019-05-25T03:04:13.953Z,99.90
2019-05-25T03:06:43.274Z,99.90
2019-05-25T03:09:11.671Z,99.90
2019-05-25T03:11:41.221Z,99.90
2019-05-25T03:14:09.621Z,99.90
2019-05-25T03:16:38.057Z,99.90
2019-05-25T03:19:06.469Z,99.90
2019-05-25T03:21:34.854Z,99.90
2019-05-25T03:24:03.255Z,99.90
2019-05-25T03:26:31.639Z,99.90
2019-05-25T03:29:00.050Z,99.90
2019-05-25T03:31:28.441Z,99.90
2019-05-25T03:33:56.842Z,99.80
2019-05-25T03:36:25.229Z,99.90
2019-05-25T03:38:53.633Z,99.90
2019-05-25T03:41:22.083Z,99.90
2019-05-25T03:43:50.487Z,99.90
2019-05-25T03:46:18.875Z,99.90
2019-05-25T03:48:47.368Z,99.90
2019-05-25T03:51:15.827Z,99.90
2019-05-25T03:53:44.536Z,99.90
2019-05-25T03:56:12.916Z,99.90
2019-05-25T03:58:41.329Z,99.90
2019-05-25T04:01:10.381Z,99.90
2019-05-25T04:03:38.792Z,99.90
2019-05-25T04:06:08.451Z,99.90
2019-05-25T04:08:36.856Z,99.90
2019-05-25T04:11:05.351Z,99.90
2019-05-25T04:13:34.025Z,99.90
2019-05-25T04:16:02.413Z,99.40
2019-05-25T04:18:31.652Z,99.90
2019-05-25T04:21:00.076Z,99.90
2019-05-25T04:23:28.453Z,99.90
2019-05-25T04:25:57.155Z,99.90
2019-05-25T04:28:26.907Z,99.90
2019-05-25T04:30:55.317Z,99.90
2019-05-25T04:33:23.730Z,99.90
2019-05-25T04:35:52.124Z,99.90
2019-05-25T04:38:20.508Z,99.90
2019-05-25T04:40:48.984Z,99.90
2019-05-25T04:43:17.362Z,99.90
2019-05-25T04:45:45.754Z,99.90
2019-05-25T04:48:14.153Z,99.90
2019-05-25T04:50:42.564Z,99.90
2019-05-25T04:53:10.958Z,99.90
2019-05-25T04:55:39.360Z,99.90
2019-05-25T04:58:07.760Z,99.90
2019-05-25T05:00:36.222Z,99.90
2019-05-25T05:03:04.687Z,99.90
2019-05-25T05:05:33.084Z,99.90
2019-05-25T05:08:01.973Z,99.90
2019-05-25T05:10:30.393Z,99.90
2019-05-25T05:12:58.781Z,99.90
2019-05-25T05:15:27.192Z,99.90
2019-05-25T05:17:55.664Z,99.80
2019-05-25T05:20:24.078Z,99.90
2019-05-25T05:22:52.544Z,99.90
2019-05-25T05:25:20.967Z,99.60
2019-05-25T05:27:49.811Z,99.90
2019-05-25T05:30:21.721Z,98.90
2019-05-25T05:32:53.417Z,99.20
2019-05-25T05:35:21.816Z,99.30
2019-05-25T05:37:50.295Z,98.70
2019-05-25T05:40:18.762Z,99.10
2019-05-25T05:42:49.273Z,98.40
2019-05-25T05:45:16.881Z,97.90
2019-05-25T05:47:46.995Z,98.50
2019-05-25T05:50:15.805Z,98.30
2019-05-25T05:52:44.676Z,97.50
2019-05-25T05:55:17.159Z,97.30
2019-05-25T05:57:43.739Z,96.90
2019-05-25T06:00:13.255Z,97.10
2019-05-25T06:02:41.682Z,96.00
2019-05-25T06:05:10.195Z,96.10
2019-05-25T06:07:38.588Z,96.10
2019-05-25T06:10:08.131Z,96.20
2019-05-25T06:12:36.535Z,95.70
2019-05-25T06:15:07.886Z,95.40
2019-05-25T06:17:36.286Z,95.40
2019-05-25T06:20:06.622Z,95.20
2019-05-25T06:22:36.450Z,95.10
2019-05-25T06:25:09.374Z,95.10
2019-05-25T06:27:37.769Z,95.10
2019-05-25T06:30:09.054Z,95.20
2019-05-25T06:32:37.462Z,94.60
2019-05-25T06:35:09.973Z,94.60
2019-05-25T06:37:38.369Z,94.50
2019-05-25T06:40:08.202Z,93.30
2019-05-25T06:42:36.602Z,93.60
2019-05-25T06:45:09.090Z,93.40
2019-05-25T06:47:37.565Z,93.20
2019-05-25T06:50:07.866Z,93.10
2019-05-25T06:52:36.275Z,93.30
2019-05-25T06:55:06.599Z,93.30
2019-05-25T06:57:43.063Z,93.30
2019-05-25T07:00:06.935Z,93.00
2019-05-25T07:02:35.327Z,92.80
2019-05-25T07:05:06.053Z,93.00
2019-05-25T07:07:34.443Z,93.00
2019-05-25T07:10:03.206Z,92.40
2019-05-25T07:12:31.616Z,92.80
2019-05-25T07:15:00.020Z,92.10
2019-05-25T07:17:28.417Z,92.00
2019-05-25T07:19:56.823Z,92.30
2019-05-25T07:22:25.274Z,92.20
2019-05-25T07:24:53.673Z,91.40
2019-05-25T07:27:22.059Z,91.40
2019-05-25T07:29:50.448Z,90.30
2019-05-25T07:32:18.826Z,90.80
2019-05-25T07:34:47.224Z,90.80
2019-05-25T07:37:15.609Z,90.60
2019-05-25T07:39:44.266Z,89.90
2019-05-25T07:42:12.663Z,90.30
2019-05-25T07:44:41.053Z,89.90
2019-05-25T07:47:09.452Z,87.50
2019-05-25T07:49:37.848Z,87.30
2019-05-25T07:52:06.232Z,87.90
2019-05-25T07:54:34.633Z,88.10
2019-05-25T07:57:03.026Z,88.10
2019-05-25T07:59:31.411Z,88.00
2019-05-25T08:02:00.093Z,87.90
2019-05-25T08:04:28.480Z,87.80
2019-05-25T08:06:56.860Z,85.30
2019-05-25T08:09:25.278Z,85.40
2019-05-25T08:11:53.663Z,83.70
2019-05-25T08:14:22.060Z,83.60
2019-05-25T08:16:50.470Z,85.00
2019-05-25T08:19:18.860Z,80.60
2019-05-25T08:21:47.252Z,84.60
2019-05-25T08:24:15.652Z,82.10
2019-05-25T08:26:44.041Z,82.90
2019-05-25T08:29:12.431Z,82.10
2019-05-25T08:31:40.831Z,81.20
2019-05-25T08:34:09.680Z,79.50
2019-05-25T08:36:38.099Z,79.40
2019-05-25T08:39:07.316Z,79.50
2019-05-25T08:41:35.715Z,81.80
2019-05-25T08:44:05.488Z,80.60
2019-05-25T08:46:33.879Z,83.40
2019-05-25T08:49:02.262Z,77.60
2019-05-25T08:51:30.656Z,81.60
2019-05-25T08:53:59.043Z,83.40
2019-05-25T08:56:27.450Z,77.20
2019-05-25T08:58:55.852Z,76.00
2019-05-25T09:01:24.267Z,75.30
2019-05-25T09:03:52.724Z,75.90
2019-05-25T09:06:22.795Z,75.70
2019-05-25T09:08:51.229Z,79.80
2019-05-25T09:11:19.613Z,76.20
2019-05-25T09:13:47.995Z,75.40
2019-05-25T09:16:16.470Z,75.80
2019-05-25T09:18:44.943Z,76.70
2019-05-25T09:21:13.336Z,73.60
2019-05-25T09:23:41.713Z,71.40
2019-05-25T09:26:13.238Z,72.20
2019-05-25T09:28:40.963Z,74.90
2019-05-25T09:31:09.360Z,70.20
2019-05-25T09:33:37.770Z,76.60
2019-05-25T09:36:06.169Z,70.90
2019-05-25T09:38:34.548Z,71.40
2019-05-25T09:41:02.935Z,69.20
2019-05-25T09:43:33.939Z,71.90
2019-05-25T09:46:03.250Z,69.50
2019-05-25T09:48:30.761Z,70.70
2019-05-25T09:50:59.177Z,66.70
2019-05-25T09:53:27.547Z,68.30
2019-05-25T09:55:55.961Z,69.60
2019-05-25T09:58:24.356Z,69.40
2019-05-25T10:00:52.732Z,66.00
2019-05-25T10:03:21.120Z,68.00
2019-05-25T10:05:49.508Z,65.10
2019-05-25T10:08:17.905Z,67.10
2019-05-25T10:10:46.720Z,68.30
2019-05-25T10:13:15.143Z,74.50
2019-05-25T10:15:43.508Z,70.50
2019-05-25T10:18:12.174Z,65.30
2019-05-25T10:20:40.824Z,63.70
2019-05-25T10:23:09.228Z,63.70
2019-05-25T10:25:37.617Z,69.10
2019-05-25T10:28:06.076Z,63.80
2019-05-25T10:30:34.528Z,65.80
2019-05-25T10:33:02.917Z,65.10
2019-05-25T10:35:31.359Z,69.80
2019-05-25T10:37:59.803Z,68.30
2019-05-25T10:40:28.200Z,68.10
2019-05-25T10:42:56.603Z,63.90
2019-05-25T10:45:24.983Z,64.90
2019-05-25T10:47:53.384Z,63.70
2019-05-25T10:50:22.382Z,73.40
2019-05-25T10:52:50.777Z,64.40
2019-05-25T10:55:19.242Z,64.50
2019-05-25T10:57:47.627Z,62.40
2019-05-25T11:00:19.101Z,63.10
2019-05-25T11:02:47.512Z,66.50
2019-05-25T11:05:16.321Z,61.20
2019-05-25T11:07:44.724Z,65.90
2019-05-25T11:10:13.757Z,65.30
2019-05-25T11:12:42.151Z,58.80
2019-05-25T11:15:11.477Z,63.30
2019-05-25T11:17:39.866Z,59.80
2019-05-25T11:20:09.679Z,61.40
2019-05-25T11:22:38.149Z,66.50
2019-05-25T11:25:08.765Z,65.80
2019-05-25T11:27:37.387Z,70.00
2019-05-25T11:30:09.596Z,69.50
2019-05-25T11:32:37.127Z,69.50
2019-05-25T11:35:08.351Z,66.20
2019-05-25T11:37:36.741Z,70.60
2019-05-25T11:40:09.911Z,70.80
2019-05-25T11:42:38.288Z,69.70
2019-05-25T11:45:08.387Z,74.50
2019-05-25T11:47:36.774Z,67.70
2019-05-25T11:50:07.083Z,69.50
2019-05-25T11:52:34.712Z,72.30
2019-05-25T11:55:04.483Z,68.70
2019-05-25T11:57:32.879Z,69.10
2019-05-25T12:00:01.272Z,70.80
2019-05-25T12:02:29.681Z,68.60
2019-05-25T12:04:58.079Z,73.00
2019-05-25T12:07:26.464Z,78.30
2019-05-25T12:09:54.872Z,82.90
2019-05-25T12:12:23.261Z,81.80
2019-05-25T12:14:51.700Z,82.30
2019-05-25T12:17:20.329Z,83.60
2019-05-25T12:19:48.758Z,84.40
2019-05-25T12:22:17.139Z,87.50
2019-05-25T12:24:45.538Z,83.30
2019-05-25T12:27:13.928Z,85.20
2019-05-25T12:29:42.332Z,79.70
2019-05-25T12:32:10.727Z,83.00
2019-05-25T12:34:39.145Z,82.60
2019-05-25T12:37:07.528Z,81.50
2019-05-25T12:39:35.908Z,79.60
2019-05-25T12:42:04.375Z,79.30
2019-05-25T12:44:34.542Z,79.90
2019-05-25T12:47:02.885Z,79.80
2019-05-25T12:49:48.484Z,79.50
2019-05-25T12:52:01.388Z,78.20
2019-05-25T12:54:29.787Z,76.40
2019-05-25T12:56:58.195Z,76.00
2019-05-25T12:59:26.649Z,74.90
2019-05-25T13:01:55.040Z,75.80
2019-05-25T13:04:23.435Z,74.30
2019-05-25T13:06:51.840Z,79.00
2019-05-25T13:09:20.232Z,81.50
2019-05-25T13:11:48.625Z,84.30
2019-05-25T13:14:17.082Z,70.60
2019-05-25T13:16:45.483Z,73.40
2019-05-25T13:19:13.944Z,77.90
2019-05-25T13:21:42.464Z,72.80
2019-05-25T13:24:10.840Z,70.90
2019-05-25T13:26:39.244Z,68.80
2019-05-25T13:29:07.653Z,70.90
2019-05-25T13:31:36.066Z,69.20
2019-05-25T13:34:04.437Z,69.30
2019-05-25T13:36:32.838Z,70.80
2019-05-25T13:39:01.228Z,72.40
2019-05-25T13:41:29.709Z,71.40
2019-05-25T13:43:58.103Z,66.90
2019-05-25T13:46:26.514Z,67.80
2019-05-25T13:48:54.904Z,64.60
2019-05-25T13:51:23.293Z,72.70
2019-05-25T13:53:52.033Z,61.80
2019-05-25T13:56:20.464Z,63.50
2019-05-25T13:58:48.929Z,73.30
2019-05-25T14:01:28.052Z,62.70
2019-05-25T14:03:47.439Z,60.90
2019-05-25T14:06:15.840Z,59.40
2019-05-25T14:08:44.220Z,60.70
2019-05-25T14:11:12.607Z,63.70
2019-05-25T14:13:41.008Z,65.90
2019-05-25T14:16:09.402Z,65.40
2019-05-25T14:18:37.800Z,59.90
2019-05-25T14:21:06.197Z,58.70
2019-05-25T14:23:34.931Z,67.20
2019-05-25T14:26:04.380Z,56.60
2019-05-25T14:28:32.761Z,55.50
2019-05-25T14:31:01.136Z,63.90
2019-05-25T14:33:29.533Z,67.90
2019-05-25T14:35:57.911Z,65.70
2019-05-25T14:38:26.304Z,55.20
2019-05-25T14:40:54.697Z,57.10
2019-05-25T14:43:23.132Z,53.30
2019-05-25T14:45:53.339Z,57.60
2019-05-25T14:48:23.096Z,54.50
2019-05-25T14:50:51.492Z,55.40
2019-05-25T14:53:19.884Z,51.00
2019-05-25T14:55:48.275Z,54.50
2019-05-25T14:58:16.685Z,53.00
2019-05-25T15:00:45.069Z,55.00
2019-05-25T15:03:13.460Z,53.80
2019-05-25T15:05:41.862Z,53.90
2019-05-25T15:08:11.121Z,57.00
2019-05-25T15:10:39.507Z,51.40
2019-05-25T15:13:08.226Z,54.20
2019-05-25T15:15:36.617Z,52.20
2019-05-25T15:18:05.001Z,63.90
2019-05-25T15:20:33.778Z,52.40
2019-05-25T15:23:02.204Z,52.40
2019-05-25T15:25:30.645Z,51.50
2019-05-25T15:27:59.056Z,53.30
2019-05-25T15:30:27.533Z,51.60
2019-05-25T15:32:55.934Z,55.10
2019-05-25T15:35:24.312Z,56.40
2019-05-25T15:37:53.155Z,51.90
2019-05-25T15:40:21.895Z,50.80
2019-05-25T15:42:50.280Z,53.30
2019-05-25T15:45:18.782Z,52.10
2019-05-25T15:47:47.162Z,52.10
2019-05-25T15:50:16.598Z,52.50
2019-05-25T15:52:44.986Z,53.30
2019-05-25T15:55:13.717Z,54.90
2019-05-25T15:57:42.108Z,54.40
2019-05-25T16:00:12.007Z,53.70
2019-05-25T16:02:40.393Z,56.80
2019-05-25T16:05:09.241Z,54.00
2019-05-25T16:07:41.092Z,54.40
2019-05-25T16:10:10.145Z,57.80
2019-05-25T16:12:38.532Z,53.10
2019-05-25T16:15:10.127Z,53.50
2019-05-25T16:17:39.154Z,53.80
2019-05-25T16:20:07.786Z,54.30
2019-05-25T16:22:36.184Z,56.80
2019-05-25T16:25:06.960Z,56.80
2019-05-25T16:27:35.430Z,59.70
2019-05-25T16:30:06.322Z,55.80
2019-05-25T16:32:34.791Z,56.20
2019-05-25T16:35:03.846Z,58.10
2019-05-25T16:37:32.315Z,56.20
2019-05-25T16:40:00.713Z,54.60
2019-05-25T16:42:29.106Z,56.70
2019-05-25T16:44:57.493Z,55.90
2019-05-25T16:47:25.883Z,56.60
2019-05-25T16:49:54.291Z,57.40
2019-05-25T16:52:22.720Z,57.10
2019-05-25T16:54:51.097Z,58.10
2019-05-25T16:57:19.488Z,57.80
2019-05-25T16:59:47.871Z,57.90
2019-05-25T17:02:16.264Z,57.30
2019-05-25T17:04:44.643Z,58.50
2019-05-25T17:07:13.252Z,59.50
2019-05-25T17:09:41.637Z,60.10
2019-05-25T17:12:10.195Z,60.90
2019-05-25T17:14:38.567Z,61.10
2019-05-25T17:17:06.972Z,62.70
2019-05-25T17:19:35.351Z,60.80
2019-05-25T17:22:03.826Z,62.10
2019-05-25T17:24:32.197Z,62.70
2019-05-25T17:27:00.996Z,61.80
2019-05-25T17:29:29.472Z,61.50
2019-05-25T17:31:57.981Z,62.10
2019-05-25T17:34:26.453Z,62.10
2019-05-25T17:36:54.836Z,62.00
2019-05-25T17:39:23.236Z,62.30
2019-05-25T17:41:51.697Z,63.40
2019-05-25T17:44:20.087Z,63.10
2019-05-25T17:46:48.479Z,62.60
2019-05-25T17:49:16.879Z,61.20
2019-05-25T17:51:45.633Z,62.40
2019-05-25T17:54:14.045Z,62.70
2019-05-25T17:56:42.433Z,63.40
2019-05-25T17:59:10.844Z,62.40
2019-05-25T18:01:39.231Z,62.60
2019-05-25T18:04:08.127Z,66.40
2019-05-25T18:06:36.709Z,63.90
2019-05-25T18:09:07.804Z,63.90
2019-05-25T18:11:36.192Z,64.60
2019-05-25T18:14:05.221Z,63.50
2019-05-25T18:16:33.718Z,63.60
2019-05-25T18:19:02.113Z,64.30
2019-05-25T18:21:30.603Z,64.10
2019-05-25T18:23:59.008Z,63.60
2019-05-25T18:26:27.378Z,64.40
2019-05-25T18:28:55.839Z,64.40
2019-05-25T18:31:24.228Z,64.90
2019-05-25T18:33:52.622Z,64.60
2019-05-25T18:36:21.004Z,66.00
2019-05-25T18:38:49.437Z,65.30
2019-05-25T18:41:18.070Z,66.00
2019-05-25T18:43:46.485Z,65.60
2019-05-25T18:46:15.136Z,65.70
2019-05-25T18:48:43.568Z,66.00
2019-05-25T18:51:11.987Z,66.20
2019-05-25T18:53:40.457Z,67.00
2019-05-25T18:56:08.827Z,66.50
2019-05-25T18:58:37.252Z,67.00
2019-05-25T19:01:06.022Z,67.50
2019-05-25T19:03:34.722Z,67.80
2019-05-25T19:06:03.160Z,68.30
2019-05-25T19:08:31.897Z,68.70
2019-05-25T19:11:00.289Z,68.80
2019-05-25T19:13:28.675Z,69.30
2019-05-25T19:15:57.060Z,71.50
2019-05-25T19:18:25.480Z,72.20
2019-05-25T19:20:53.895Z,72.00
2019-05-25T19:23:22.284Z,72.00
2019-05-25T19:25:50.677Z,71.70
2019-05-25T19:28:19.062Z,71.60
2019-05-25T19:30:47.458Z,71.30
2019-05-25T19:33:15.836Z,71.80
2019-05-25T19:35:44.233Z,72.20
2019-05-25T19:38:12.613Z,72.40
2019-05-25T19:40:41.012Z,72.70
2019-05-25T19:43:09.394Z,73.30
2019-05-25T19:45:37.836Z,73.50
2019-05-25T19:48:06.225Z,74.20
2019-05-25T19:50:34.608Z,74.90
2019-05-25T19:53:02.997Z,75.00
2019-05-25T19:55:31.392Z,76.20
2019-05-25T19:57:59.785Z,75.40
2019-05-25T20:00:28.180Z,75.90
2019-05-25T20:02:56.573Z,77.30
2019-05-25T20:05:26.321Z,78.00
2019-05-25T20:07:54.699Z,77.00
2019-05-25T20:10:23.828Z,77.20
2019-05-25T20:12:52.270Z,80.20
2019-05-25T20:15:20.748Z,79.90
2019-05-25T20:17:49.131Z,80.40
2019-05-25T20:20:18.301Z,81.20
2019-05-25T20:22:46.999Z,80.40
2019-05-25T20:25:15.505Z,81.60
2019-05-25T20:27:43.909Z,82.20
2019-05-25T20:30:13.036Z,83.30
2019-05-25T20:32:41.429Z,82.30
2019-05-25T20:35:09.988Z,83.30
2019-05-25T20:37:38.389Z,84.20
2019-05-25T20:40:08.381Z,84.60
2019-05-25T20:42:36.864Z,84.00
2019-05-25T20:45:07.079Z,86.10
2019-05-25T20:47:35.475Z,87.40
2019-05-25T20:50:06.664Z,87.50
2019-05-25T20:52:35.088Z,87.10
2019-05-25T20:55:04.656Z,87.30
2019-05-25T20:57:33.323Z,87.50
2019-05-25T21:00:01.692Z,86.80
2019-05-25T21:02:30.364Z,87.60
2019-05-25T21:04:58.750Z,87.20
2019-05-25T21:07:27.155Z,88.10
2019-05-25T21:09:55.527Z,87.60
2019-05-25T21:12:24.316Z,87.90
2019-05-25T21:14:52.703Z,88.50
2019-05-25T21:17:21.098Z,88.80
2019-05-25T21:19:49.489Z,88.50
2019-05-25T21:22:17.871Z,89.30
2019-05-25T21:24:46.263Z,88.90
2019-05-25T21:27:14.676Z,88.90
2019-05-25T21:29:43.074Z,88.30
2019-05-25T21:32:11.476Z,88.30
2019-05-25T21:34:39.858Z,89.30
2019-05-25T21:37:08.236Z,89.80
2019-05-25T21:39:36.624Z,88.00
2019-05-25T21:42:05.031Z,89.10
2019-05-25T21:44:33.414Z,90.30
2019-05-25T21:47:01.799Z,90.30
2019-05-25T21:49:30.489Z,88.80
2019-05-25T21:51:58.875Z,90.40
2019-05-25T21:54:27.269Z,90.80
2019-05-25T21:56:55.669Z,90.40
2019-05-25T21:59:24.063Z,90.90
2019-05-25T22:01:52.458Z,90.40
2019-05-25T22:04:20.871Z,90.70
2019-05-25T22:06:49.500Z,90.30
2019-05-25T22:09:17.912Z,90.60
2019-05-25T22:11:46.298Z,90.70
2019-05-25T22:14:14.699Z,90.60
2019-05-25T22:16:43.094Z,90.40
2019-05-25T22:19:12.852Z,91.10
2019-05-25T22:21:41.244Z,90.80
2019-05-25T22:24:09.678Z,90.90
2019-05-25T22:26:38.041Z,91.00
2019-05-25T22:29:06.444Z,90.30
2019-05-25T22:31:34.847Z,90.70
2019-05-25T22:34:03.243Z,90.80
2019-05-25T22:36:40.209Z,91.30
2019-05-25T22:39:01.744Z,90.60
2019-05-25T22:41:30.127Z,91.40
2019-05-25T22:43:58.520Z,91.30
2019-05-25T22:46:26.919Z,90.70
2019-05-25T22:48:55.376Z,90.70
2019-05-25T22:51:23.841Z,90.50
2019-05-25T22:53:52.234Z,91.10
2019-05-25T22:56:20.620Z,91.30
2019-05-25T22:58:49.018Z,91.40
2019-05-25T23:01:17.408Z,91.90
2019-05-25T23:03:45.816Z,91.50
2019-05-25T23:06:14.204Z,92.40
2019-05-25T23:08:42.601Z,92.60
2019-05-25T23:11:10.991Z,91.50
2019-05-25T23:13:39.380Z,92.10
2019-05-25T23:16:09.435Z,92.50
2019-05-25T23:18:37.821Z,92.40
2019-05-25T23:21:06.208Z,93.10
2019-05-25T23:23:34.600Z,92.60
2019-05-25T23:26:02.995Z,92.50
2019-05-25T23:28:31.384Z,93.50
2019-05-25T23:30:59.793Z,92.90
2019-05-25T23:33:28.176Z,92.70
2019-05-25T23:35:56.569Z,93.20
2019-05-25T23:38:24.960Z,92.30
2019-05-25T23:40:53.363Z,92.60
2019-05-25T23:43:21.808Z,93.50
2019-05-25T23:45:50.210Z,92.90
2019-05-25T23:48:18.599Z,94.00
2019-05-25T23:50:46.997Z,93.80
2019-05-25T23:53:15.387Z,94.80
2019-05-25T23:55:43.793Z,94.50
2019-05-25T23:58:12.184Z,94.60
